createdAt,value
2022-08-05T00:09:54.521Z,27.52
2022-08-05T00:20:01.960Z,27.52
2022-08-05T00:30:03.606Z,27.51
2022-08-05T00:40:04.985Z,27.53
2022-08-05T00:50:10.799Z,27.50
2022-08-05T01:00:13.257Z,27.50
2022-08-05T01:10:14.661Z,27.49
2022-08-05T01:20:16.053Z,27.47
2022-08-05T01:30:18.891Z,27.49
2022-08-05T01:40:20.572Z,27.43
2022-08-05T01:50:29.717Z,27.45
2022-08-05T02:00:31.173Z,27.43
2022-08-05T02:10:32.667Z,27.39
2022-08-05T02:20:38.960Z,27.42
2022-08-05T02:30:51.553Z,27.39
2022-08-05T02:40:55.886Z,27.41
2022-08-05T02:50:58.324Z,27.39
2022-08-05T03:00:59.858Z,27.38
2022-08-05T03:11:53.272Z,27.37
2022-08-05T03:21:22.445Z,27.36
2022-08-05T03:31:56.591Z,27.32
2022-08-05T03:41:52.639Z,27.31
2022-08-05T03:52:36.873Z,27.31
2022-08-05T04:02:37.713Z,27.31
2022-08-05T04:22:40.065Z,26.38
2022-08-05T04:32:41.607Z,26.38
2022-08-05T04:42:43.584Z,26.29
2022-08-05T04:52:47.705Z,26.10
2022-08-05T05:02:51.188Z,26.05
2022-08-05T05:12:52.893Z,25.83
2022-08-05T05:22:54.158Z,26.13
2022-08-05T05:32:55.415Z,25.87
2022-08-05T05:42:56.670Z,25.60
2022-08-05T05:52:57.941Z,24.42
2022-08-05T06:03:00.900Z,23.72
2022-08-05T06:13:02.400Z,23.88
2022-08-05T06:23:04.364Z,23.47
2022-08-05T06:33:09.713Z,23.90
2022-08-05T06:43:57.867Z,24.68
2022-08-05T06:53:33.410Z,24.71
2022-08-05T07:03:40.696Z,24.81
2022-08-05T07:13:56.835Z,24.94
2022-08-05T07:24:01.321Z,24.74
2022-08-05T07:34:02.797Z,25.40
2022-08-05T07:44:04.144Z,25.72
2022-08-05T07:54:05.505Z,25.23
2022-08-05T08:04:06.808Z,25.43
2022-08-05T08:14:09.153Z,26.09
2022-08-05T08:24:13.768Z,26.07
2022-08-05T08:34:15.532Z,25.50
2022-08-05T08:45:19.091Z,25.59
2022-08-05T08:54:42.253Z,26.30
2022-08-05T09:04:57.867Z,26.57
2022-08-05T09:15:06.427Z,26.59
2022-08-05T09:25:13.999Z,26.59
2022-08-05T09:35:27.343Z,26.63
2022-08-05T09:46:06.569Z,26.67
2022-08-05T09:55:56.262Z,26.68
2022-08-05T10:06:03.667Z,26.69
2022-08-05T10:16:08.735Z,26.70
2022-08-05T10:26:13.863Z,26.70
2022-08-05T10:36:16.159Z,26.70
2022-08-05T10:46:17.452Z,26.69
2022-08-05T10:56:34.205Z,26.69
2022-08-05T11:06:35.650Z,26.92
2022-08-05T11:16:56.055Z,27.05
2022-08-05T11:26:59.467Z,27.10
2022-08-05T11:37:06.277Z,27.16
2022-08-05T11:47:49.340Z,27.13
2022-08-05T11:58:10.616Z,27.12
2022-08-05T12:08:23.313Z,27.18
2022-08-05T12:18:33.054Z,27.22
2022-08-05T12:28:39.599Z,27.21
2022-08-05T12:38:45.963Z,27.22
2022-08-05T12:48:51.691Z,27.21
2022-08-05T12:59:00.973Z,27.22
2022-08-05T13:09:04.265Z,27.24
2022-08-05T13:19:12.632Z,27.21
2022-08-05T13:49:10.544Z,27.26
2022-08-05T13:59:19.950Z,27.28
2022-08-05T14:09:22.215Z,27.30
2022-08-05T14:19:23.650Z,27.28
2022-08-05T14:29:25.076Z,27.30
2022-08-05T14:39:27.148Z,27.30
2022-08-05T14:49:56.484Z,27.32
2022-08-05T14:59:52.121Z,27.30
2022-08-05T15:09:56.793Z,27.30
2022-08-05T15:20:02.657Z,27.27
2022-08-05T15:30:06.589Z,27.32
2022-08-05T15:41:00.282Z,27.32
2022-08-05T15:50:29.249Z,27.35
2022-08-05T16:00:51.010Z,27.35
2022-08-05T16:10:52.699Z,27.38
2022-08-05T16:20:54.123Z,27.37
2022-08-05T16:30:55.508Z,27.36
2022-08-05T16:41:00.803Z,27.31
2022-08-05T16:51:09.298Z,26.17
2022-08-05T17:01:13.946Z,25.72
2022-08-05T17:11:23.711Z,25.43
2022-08-05T17:21:36.067Z,24.95
2022-08-05T17:31:56.488Z,24.99
2022-08-05T17:42:19.265Z,25.40
2022-08-05T17:52:20.325Z,25.67
2022-08-05T18:02:23.580Z,25.22
2022-08-05T18:12:29.268Z,25.24
2022-08-05T18:22:46.248Z,25.26
2022-08-05T18:32:53.334Z,24.83
2022-08-05T18:43:02.066Z,24.04
2022-08-05T18:53:06.534Z,24.61
2022-08-05T19:03:20.774Z,23.71
2022-08-05T19:13:42.112Z,23.91
2022-08-05T19:24:07.685Z,24.11
2022-08-05T19:34:11.447Z,24.22
2022-08-05T19:44:14.097Z,24.07
2022-08-05T19:54:21.910Z,23.95
2022-08-05T20:04:30.808Z,24.14
2022-08-05T20:14:32.289Z,25.76
2022-08-05T20:24:35.261Z,26.01
2022-08-05T20:34:36.648Z,26.05
2022-08-05T20:44:38.210Z,26.09
2022-08-05T20:54:55.131Z,26.17
2022-08-05T21:05:02.479Z,26.21
2022-08-05T21:15:03.940Z,26.22
2022-08-05T21:25:05.953Z,26.22
2022-08-05T21:35:17.620Z,26.18
2022-08-05T21:45:24.508Z,26.21
2022-08-05T21:56:04.486Z,26.16
2022-08-05T22:05:49.208Z,26.14
2022-08-05T22:15:56.634Z,26.17
2022-08-05T22:26:10.453Z,26.18
2022-08-05T22:36:14.523Z,26.16
2022-08-05T22:46:23.452Z,26.17
2022-08-05T22:56:30.621Z,26.10
2022-08-05T23:06:32.794Z,26.12
2022-08-05T23:16:34.525Z,26.04
2022-08-05T23:26:35.897Z,26.01
2022-08-05T23:36:38.533Z,26.07
2022-08-05T23:46:40.799Z,26.06
2022-08-05T23:56:43.892Z,26.02
